Time;durP1;ratioP1;P1;durP2;ratioP2;P2;SDS_P1;SDS_P2;PMS_P1;PMS_P2;Temp;Humidity;BMP_temperature;BMP_pressure;BME280_temperature;BME280_humidity;BME280_pressure;Samples;Min_cycle;Max_cycle;Signal;HPM_P1;HPM_P2
2022/01/31 00:01:46;;;;;;;14.35;4.15;;;;;;;3.56;58.89;100035.22;5031837;28;20025;-74
2022/01/31 00:04:13;;;;;;;17.27;3.80;;;;;;;3.44;59.29;100033.91;5032007;28;20033;-74
2022/01/31 00:06:41;;;;;;;17.20;4.15;;;;;;;3.37;59.49;100048.13;5031940;28;20482;-75
2022/01/31 00:09:17;;;;;;;14.43;3.03;;;;;;;3.39;59.41;100042.06;5033243;28;20537;-75
2022/01/31 00:11:45;;;;;;;15.38;3.88;;;;;;;3.27;59.86;100039.91;5033175;28;20071;-75
2022/01/31 00:14:28;;;;;;;18.02;4.72;;;;;;;3.26;60.04;100030.69;5015810;28;20439;-75
2022/01/31 00:17:09;;;;;;;21.05;4.30;;;;;;;3.23;59.92;100045.63;5032183;28;20021;-75
2022/01/31 00:19:36;;;;;;;17.85;3.60;;;;;;;3.25;59.72;100036.75;5033426;28;20064;-76
2022/01/31 00:22:02;;;;;;;19.23;4.18;;;;;;;3.08;60.26;100043.56;5019204;28;20029;-75
2022/01/31 00:24:38;;;;;;;15.23;3.15;;;;;;;3.05;60.77;100019.91;5035456;28;20064;-75
2022/01/31 00:27:08;;;;;;;20.23;3.10;;;;;;;3.16;60.19;100028.13;5036618;28;20018;-75
2022/01/31 00:29:34;;;;;;;9.95;2.72;;;;;;;3.09;60.20;100019.84;5018829;28;20032;-76
2022/01/31 00:32:01;;;;;;;19.65;3.88;;;;;;;3.03;60.56;100028.00;5036825;28;20076;-75
2022/01/31 00:34:26;;;;;;;15.82;3.70;;;;;;;2.93;60.85;100023.38;5035422;28;20455;-74
2022/01/31 00:37:04;;;;;;;15.35;3.83;;;;;;;2.93;61.06;100029.81;5036566;28;20044;-75
2022/01/31 00:39:34;;;;;;;20.55;3.70;;;;;;;2.81;61.04;100021.25;5035466;28;20118;-74
2022/01/31 00:42:14;;;;;;;11.13;3.58;;;;;;;2.79;61.46;100018.06;5035171;28;20029;-75
2022/01/31 00:44:47;;;;;;;19.35;3.85;;;;;;;2.81;61.13;99999.50;5036632;28;20103;-75
2022/01/31 00:47:19;;;;;;;27.88;4.07;;;;;;;2.70;61.35;99995.34;5036617;28;20105;-74
2022/01/31 00:50:19;;;;;;;15.07;2.63;;;;;;;2.74;61.46;99996.06;5035057;28;20132;-75
2022/01/31 00:52:39;;;;;;;19.05;4.07;;;;;;;2.61;61.68;99993.91;5021217;28;20033;-73
2022/01/31 00:55:06;;;;;;;28.35;4.30;;;;;;;2.57;62.00;99993.19;5034800;28;20584;-75
2022/01/31 00:57:32;;;;;;;11.73;2.72;;;;;;;2.65;61.90;99990.25;5035154;28;20075;-75
2022/01/31 00:59:57;;;;;;;15.93;3.53;;;;;;;2.59;62.16;99981.50;5035986;28;20029;-74
2022/01/31 01:02:25;;;;;;;18.10;4.88;;;;;;;2.64;62.15;99980.22;5036273;28;20018;-75
2022/01/31 01:04:52;;;;;;;15.45;3.15;;;;;;;2.64;62.22;99975.38;5018319;28;20033;-75
2022/01/31 01:07:19;;;;;;;21.15;3.78;;;;;;;2.63;62.03;99982.22;5018340;28;20029;-75
2022/01/31 01:09:45;;;;;;;14.32;3.92;;;;;;;2.57;62.01;99981.94;5018162;28;20441;-75
2022/01/31 01:12:21;;;;;;;14.73;3.40;;;;;;;2.70;62.22;99984.91;5034290;28;20026;-75
2022/01/31 01:14:49;;;;;;;13.90;3.90;;;;;;;2.69;62.08;99968.47;5035814;28;20475;-75
2022/01/31 01:17:15;;;;;;;15.75;3.72;;;;;;;2.84;62.49;99972.56;5001993;28;20397;-76
2022/01/31 01:19:41;;;;;;;18.60;3.17;;;;;;;3.03;61.95;99974.53;5018210;28;20064;-74
2022/01/31 01:22:14;;;;;;;19.17;4.15;;;;;;;2.90;62.20;99968.81;5034505;28;20060;-75
2022/01/31 01:24:41;;;;;;;29.52;4.55;;;;;;;2.90;62.27;99951.13;5035594;28;20032;-75
2022/01/31 01:27:09;;;;;;;19.60;3.75;;;;;;;2.91;62.28;99953.50;5034099;28;20029;-76
2022/01/31 01:29:35;;;;;;;22.73;3.92;;;;;;;2.89;62.77;99952.34;5034440;28;20379;-74
2022/01/31 01:32:01;;;;;;;17.25;4.45;;;;;;;2.96;62.81;99955.78;5000914;28;20030;-75
2022/01/31 01:34:31;;;;;;;22.88;4.40;;;;;;;3.09;63.25;99944.66;5034187;28;20052;-74
2022/01/31 01:36:56;;;;;;;17.42;3.88;;;;;;;3.32;63.17;99938.88;5035320;28;20032;-74
2022/01/31 01:39:22;;;;;;;19.77;4.05;;;;;;;3.36;62.81;99942.41;5035108;28;20034;-75
2022/01/31 01:41:48;;;;;;;16.42;4.05;;;;;;;3.38;62.78;99939.16;5033869;28;20390;-74
2022/01/31 01:44:13;;;;;;;18.10;4.00;;;;;;;3.37;63.01;99943.19;5035106;28;20032;-74
2022/01/31 01:46:39;;;;;;;19.40;4.85;;;;;;;3.52;62.78;99935.19;5033980;28;20379;-74
2022/01/31 01:49:05;;;;;;;17.83;3.95;;;;;;;3.46;63.11;99929.28;5033920;28;20062;-75
2022/01/31 01:51:32;;;;;;;19.00;3.90;;;;;;;3.65;62.35;99916.38;5034171;28;20058;-75
2022/01/31 01:54:00;;;;;;;18.13;4.13;;;;;;;3.60;62.51;99923.31;5035307;28;20073;-75
2022/01/31 01:56:27;;;;;;;14.65;3.28;;;;;;;3.71;62.17;99920.22;5034680;28;20029;-74
2022/01/31 01:58:54;;;;;;;20.50;3.63;;;;;;;3.68;61.85;99923.94;5034419;28;20029;-75
2022/01/31 02:01:21;;;;;;;15.50;3.80;;;;;;;3.53;62.54;99920.69;5017634;28;20037;-75
2022/01/31 02:03:47;;;;;;;21.63;4.65;;;;;;;3.52;62.80;99921.91;5017092;28;20021;-75
2022/01/31 02:06:13;;;;;;;15.98;4.05;;;;;;;3.67;62.67;99928.75;5034885;28;20482;-76
2022/01/31 02:08:42;;;;;;;21.70;3.80;;;;;;;3.86;61.99;99913.78;5017101;28;20072;-75
2022/01/31 02:11:20;;;;;;;14.90;4.47;;;;;;;3.78;61.67;99905.97;5033485;28;20510;-75
2022/01/31 02:13:47;;;;;;;16.27;3.65;;;;;;;3.73;62.22;99900.88;5035059;28;20030;-75
2022/01/31 02:16:14;;;;;;;23.75;5.30;;;;;;;3.78;62.17;99901.13;5017092;28;20029;-75
2022/01/31 02:18:47;;;;;;;19.75;5.03;;;;;;;3.77;62.20;99887.47;5000665;28;20103;-75
2022/01/31 02:21:15;;;;;;;25.42;4.32;;;;;;;3.89;61.88;99898.81;5033327;28;20025;-75
2022/01/31 02:23:41;;;;;;;22.88;3.83;;;;;;;3.99;61.65;99885.69;5034695;28;20421;-75
2022/01/31 02:26:08;;;;;;;20.42;4.05;;;;;;;3.88;61.95;99882.34;5033414;28;20514;-75
2022/01/31 02:28:37;;;;;;;31.58;4.90;;;;;;;3.86;62.15;99877.16;5034613;28;20057;-75
2022/01/31 02:31:03;;;;;;;25.88;5.20;;;;;;;3.78;62.51;99866.53;5033224;28;20029;-75
2022/01/31 02:33:29;;;;;;;23.38;5.32;;;;;;;3.87;61.94;99867.47;5034376;28;20428;-74
2022/01/31 02:35:58;;;;;;;22.25;5.03;;;;;;;3.97;61.88;99865.59;5016339;28;20471;-75
2022/01/31 02:38:25;;;;;;;14.52;3.40;;;;;;;4.03;62.00;99860.22;5016731;28;20076;-75
2022/01/31 02:40:51;;;;;;;26.38;5.13;;;;;;;4.03;61.54;99851.75;5016414;28;20119;-74
2022/01/31 02:43:24;;;;;;;22.55;4.15;;;;;;;3.92;61.80;99852.06;5033328;28;20061;-75
2022/01/31 02:45:50;;;;;;;12.57;3.05;;;;;;;4.05;61.38;99852.88;5033115;28;20028;-74
2022/01/31 02:48:19;;;;;;;15.95;4.00;;;;;;;3.91;61.54;99850.47;5033994;28;20034;-75
2022/01/31 02:50:46;;;;;;;22.65;3.72;;;;;;;3.92;61.44;99838.75;5033514;28;20384;-75
2022/01/31 02:53:40;;;;;;;19.75;3.75;;;;;;;3.90;61.76;99817.91;5016029;28;20041;-76
2022/01/31 02:56:02;;;;;;;13.48;3.83;;;;;;;3.99;61.33;99829.34;5032324;28;20036;-74
2022/01/31 02:58:29;;;;;;;27.17;5.05;;;;;;;3.91;61.42;99827.94;5016365;28;20045;-75
2022/01/31 03:00:57;;;;;;;21.52;4.55;;;;;;;3.86;61.81;99825.66;5015959;28;20052;-75
2022/01/31 03:03:23;;;;;;;17.50;3.55;;;;;;;3.82;62.05;99822.94;5032786;28;20100;-75
2022/01/31 03:05:50;;;;;;;19.40;4.03;;;;;;;3.94;62.00;99818.59;5032693;28;20449;-76
2022/01/31 03:08:16;;;;;;;25.52;4.65;;;;;;;3.89;62.03;99813.53;5032673;28;20479;-75
2022/01/31 03:10:44;;;;;;;19.83;4.22;;;;;;;3.86;62.30;99812.38;5016127;28;20021;-75
2022/01/31 03:13:13;;;;;;;16.75;3.72;;;;;;;3.88;62.17;99798.66;5016133;28;20056;-74
2022/01/31 03:15:40;;;;;;;11.68;3.85;;;;;;;3.84;62.45;99786.69;5032825;28;20080;-75
2022/01/31 03:18:06;;;;;;;21.88;4.32;;;;;;;3.90;63.28;99784.88;5032324;28;20538;-75
2022/01/31 03:20:33;;;;;;;13.93;4.63;;;;;;;3.86;63.43;99777.78;5015860;28;20116;-75
2022/01/31 03:23:01;;;;;;;12.38;3.95;;;;;;;3.83;63.54;99758.97;4999537;28;20025;-75
2022/01/31 03:25:27;;;;;;;21.38;4.00;;;;;;;3.84;63.59;99763.38;5032407;28;20116;-75
2022/01/31 03:27:53;;;;;;;14.20;4.03;;;;;;;3.80;64.13;99768.28;5032971;28;20147;-75
2022/01/31 03:30:20;;;;;;;20.77;4.18;;;;;;;3.90;63.49;99747.47;5034812;28;20495;-76
2022/01/31 03:32:47;;;;;;;17.73;4.85;;;;;;;3.91;63.57;99758.31;5019992;28;20061;-75
2022/01/31 03:35:13;;;;;;;18.52;3.95;;;;;;;4.01;63.84;99761.25;5032738;28;20116;-75
2022/01/31 03:37:53;;;;;;;22.08;4.32;;;;;;;4.04;63.78;99741.44;5032606;28;20017;-75
2022/01/31 03:40:19;;;;;;;12.75;3.55;;;;;;;4.17;63.70;99744.25;5037249;28;20033;-76
2022/01/31 03:42:46;;;;;;;18.80;4.90;;;;;;;4.09;63.48;99742.91;5036108;28;20024;-76
2022/01/31 03:45:13;;;;;;;21.40;4.25;;;;;;;4.02;63.50;99737.47;5035994;28;20364;-76
2022/01/31 03:47:46;;;;;;;21.92;4.00;;;;;;;4.09;63.68;99729.59;5034178;28;20033;-75
2022/01/31 03:50:18;;;;;;;24.52;3.97;;;;;;;4.09;63.23;99742.91;5038626;28;20038;-76
2022/01/31 03:52:45;;;;;;;19.13;4.68;;;;;;;4.08;63.66;99733.66;5033489;28;20031;-75
2022/01/31 03:55:26;;;;;;;20.55;3.55;;;;;;;4.08;63.60;99725.22;5040184;28;20057;-76
2022/01/31 03:58:06;;;;;;;17.42;3.95;;;;;;;4.05;63.88;99730.94;5045038;28;20087;-76
2022/01/31 04:00:33;;;;;;;17.20;4.38;;;;;;;4.02;63.72;99718.53;5041304;28;20099;-76
2022/01/31 04:02:58;;;;;;;15.85;4.43;;;;;;;4.09;63.67;99723.19;5041989;28;20109;-75
2022/01/31 04:05:24;;;;;;;18.67;4.10;;;;;;;4.08;63.52;99713.16;5040752;28;20063;-76
2022/01/31 04:07:50;;;;;;;22.17;4.30;;;;;;;3.99;63.70;99708.19;5026800;28;20033;-76
2022/01/31 04:10:16;;;;;;;23.35;3.97;;;;;;;4.02;64.05;99714.94;5041380;28;20022;-76
2022/01/31 04:12:44;;;;;;;20.88;3.85;;;;;;;3.96;64.22;99697.00;5045392;28;20061;-76
2022/01/31 04:15:11;;;;;;;18.88;3.72;;;;;;;4.05;63.91;99699.94;5043250;28;20088;-76
2022/01/31 04:17:38;;;;;;;24.10;4.30;;;;;;;4.01;64.10;99691.59;5044882;28;20057;-77
2022/01/31 04:20:08;;;;;;;14.90;4.38;;;;;;;3.98;64.23;99697.34;5043471;28;20076;-76
2022/01/31 04:22:41;;;;;;;28.48;4.22;;;;;;;3.96;64.79;99697.00;5026724;28;20386;-76
2022/01/31 04:25:17;;;;;;;19.35;4.80;;;;;;;3.96;64.82;99683.72;5029236;28;20028;-76
2022/01/31 04:27:46;;;;;;;20.45;4.57;;;;;;;3.95;64.74;99692.63;5042937;28;20025;-76
2022/01/31 04:30:13;;;;;;;22.23;3.53;;;;;;;4.14;64.48;99677.53;5042876;28;20028;-76
2022/01/31 04:32:40;;;;;;;16.15;3.95;;;;;;;4.03;64.46;99674.25;5043486;28;20025;-76
2022/01/31 04:35:07;;;;;;;26.13;4.53;;;;;;;3.99;64.44;99662.31;5044567;28;20034;-76
2022/01/31 04:37:33;;;;;;;23.73;4.80;;;;;;;3.97;64.58;99665.56;5043644;28;20029;-75
2022/01/31 04:39:59;;;;;;;17.02;4.47;;;;;;;4.05;64.01;99658.47;5046007;28;20434;-76
2022/01/31 04:42:32;;;;;;;24.50;4.30;;;;;;;4.18;63.73;99659.28;5042940;28;20478;-76
2022/01/31 04:45:00;;;;;;;20.38;4.55;;;;;;;4.05;64.25;99660.50;5042791;28;20037;-76
2022/01/31 04:47:26;;;;;;;17.92;3.40;;;;;;;4.01;64.23;99642.91;5043604;28;20542;-76
2022/01/31 04:49:51;;;;;;;20.23;4.40;;;;;;;4.05;64.32;99646.41;5042307;28;20072;-76
2022/01/31 04:52:18;;;;;;;19.48;4.72;;;;;;;4.03;63.97;99641.25;5043081;28;20078;-76
2022/01/31 04:54:44;;;;;;;12.50;3.83;;;;;;;4.22;63.46;99631.75;5047903;28;20402;-76
2022/01/31 04:57:11;;;;;;;20.42;4.90;;;;;;;4.02;64.30;99636.84;5043980;28;20121;-75
2022/01/31 04:59:41;;;;;;;19.60;3.78;;;;;;;4.09;63.95;99619.72;5042316;28;20054;-76
2022/01/31 05:02:08;;;;;;;26.73;5.68;;;;;;;4.11;63.86;99622.84;5042542;28;20050;-76
2022/01/31 05:04:35;;;;;;;22.45;4.78;;;;;;;4.05;63.90;99618.22;5039990;28;20049;-75
2022/01/31 05:07:02;;;;;;;16.92;3.50;;;;;;;4.11;63.93;99620.03;5039389;28;20026;-75
2022/01/31 05:09:29;;;;;;;21.48;4.65;;;;;;;4.09;63.77;99619.72;5039850;28;20060;-76
2022/01/31 05:11:54;;;;;;;24.92;5.15;;;;;;;4.26;63.11;99621.16;5038519;28;20085;-75
2022/01/31 05:14:19;;;;;;;26.55;5.35;;;;;;;4.10;63.30;99615.63;5043116;28;20398;-75
2022/01/31 05:16:53;;;;;;;30.83;4.65;;;;;;;4.23;63.47;99610.00;5040083;28;20479;-75
2022/01/31 05:19:19;;;;;;;19.05;4.28;;;;;;;4.07;63.30;99612.94;5041669;28;20057;-76
2022/01/31 05:21:45;;;;;;;32.20;4.35;;;;;;;3.89;63.73;99611.50;5042183;28;20022;-76
2022/01/31 05:24:11;;;;;;;21.50;4.38;;;;;;;3.87;63.93;99585.00;5041318;28;20107;-75
2022/01/31 05:26:36;;;;;;;21.35;4.05;;;;;;;3.92;64.21;99593.69;5026271;28;20025;-76
2022/01/31 05:29:04;;;;;;;12.48;3.88;;;;;;;3.90;64.49;99596.16;5041632;28;20029;-76
2022/01/31 05:31:30;;;;;;;20.60;4.60;;;;;;;3.90;64.23;99584.88;5039773;28;20025;-75
2022/01/31 05:33:57;;;;;;;19.13;4.15;;;;;;;3.88;64.50;99586.59;5041278;28;20033;-75
2022/01/31 05:36:23;;;;;;;16.33;4.35;;;;;;;3.88;64.04;99576.13;5043106;28;20025;-76
2022/01/31 05:38:51;;;;;;;20.20;3.75;;;;;;;4.03;63.88;99572.84;5041492;28;20091;-75
2022/01/31 05:41:20;;;;;;;21.05;4.70;;;;;;;3.97;63.42;99577.44;5036577;28;20558;-75
2022/01/31 05:43:47;;;;;;;21.08;4.53;;;;;;;3.90;63.76;99558.75;5035911;28;20037;-75
2022/01/31 05:46:14;;;;;;;12.57;4.55;;;;;;;4.00;63.55;99556.81;5001716;28;20072;-75
2022/01/31 05:48:41;;;;;;;18.55;5.18;;;;;;;4.18;63.45;99543.72;5035555;28;20052;-75
2022/01/31 05:51:19;;;;;;;24.58;4.82;;;;;;;4.19;62.85;99541.72;5034961;28;20065;-76
2022/01/31 05:53:46;;;;;;;30.73;8.98;;;;;;;4.11;62.94;99546.00;5017530;28;20116;-75
2022/01/31 05:56:26;;;;;;;25.25;5.25;;;;;;;4.21;62.77;99537.19;5034240;28;20022;-75
2022/01/31 05:58:53;;;;;;;28.92;4.72;;;;;;;4.06;62.95;99532.47;5034915;28;20463;-74
2022/01/31 06:01:18;;;;;;;21.13;4.65;;;;;;;4.14;62.23;99533.81;5035686;28;20022;-76
2022/01/31 06:03:45;;;;;;;20.13;5.45;;;;;;;4.06;62.91;99524.81;5035525;28;20036;-75
2022/01/31 06:06:11;;;;;;;16.45;4.65;;;;;;;4.02;63.23;99512.88;5034270;28;20037;-76
2022/01/31 06:08:38;;;;;;;19.33;4.82;;;;;;;3.95;63.10;99524.38;5034650;28;20045;-76
2022/01/31 06:11:03;;;;;;;18.25;5.03;;;;;;;3.97;63.12;99518.28;5019729;28;20061;-75
2022/01/31 06:13:32;;;;;;;23.70;5.35;;;;;;;4.11;62.38;99512.19;5036656;28;20482;-76
2022/01/31 06:16:02;;;;;;;24.17;4.90;;;;;;;4.10;62.36;99505.75;5037386;28;20048;-75
2022/01/31 06:18:27;;;;;;;20.70;4.53;;;;;;;4.04;62.71;99509.63;5036265;28;20029;-76
2022/01/31 06:20:53;;;;;;;23.38;4.63;;;;;;;4.05;62.87;99514.00;5034238;28;20052;-76
2022/01/31 06:23:20;;;;;;;21.67;4.47;;;;;;;4.03;62.42;99488.31;5035120;28;20057;-75
2022/01/31 06:25:47;;;;;;;20.33;4.47;;;;;;;4.10;62.52;99504.97;5035055;28;20033;-75
2022/01/31 06:28:14;;;;;;;22.67;4.65;;;;;;;3.99;62.77;99499.72;5034220;28;20033;-76
2022/01/31 06:30:41;;;;;;;17.98;4.97;;;;;;;4.03;62.68;99488.31;5036458;28;20115;-76
2022/01/31 06:33:07;;;;;;;25.10;5.30;;;;;;;4.15;62.01;99484.66;5037314;28;20042;-75
2022/01/31 06:35:33;;;;;;;16.45;5.45;;;;;;;4.06;62.55;99488.19;5034598;28;20052;-75
2022/01/31 06:38:07;;;;;;;23.30;5.05;;;;;;;3.98;62.48;99471.97;5037391;28;20040;-76
2022/01/31 06:40:33;;;;;;;21.05;4.60;;;;;;;3.91;63.02;99459.72;5034506;28;20067;-75
2022/01/31 06:43:01;;;;;;;23.35;4.47;;;;;;;4.03;62.93;99465.78;5037351;28;20064;-76
2022/01/31 06:45:29;;;;;;;18.08;4.75;;;;;;;3.99;62.64;99462.31;5037391;28;20021;-75
2022/01/31 06:47:54;;;;;;;21.13;6.55;;;;;;;4.03;62.93;99463.75;5038521;28;20044;-74
2022/01/31 06:50:21;;;;;;;22.15;5.38;;;;;;;4.05;62.21;99469.69;5038142;28;20386;-76
2022/01/31 06:52:51;;;;;;;16.38;3.92;;;;;;;4.03;62.14;99463.75;5035031;28;20094;-75
2022/01/31 06:55:20;;;;;;;18.20;5.03;;;;;;;4.05;62.34;99452.78;5036154;28;20144;-75
2022/01/31 06:57:48;;;;;;;20.85;5.72;;;;;;;4.10;62.55;99440.16;5038823;28;20035;-74
2022/01/31 07:00:33;;;;;;;26.08;5.28;;;;;;;4.14;61.31;99452.09;5035833;28;20041;-75
2022/01/31 07:03:02;;;;;;;21.73;5.45;;;;;;;4.28;61.27;99446.75;5037200;28;20036;-76
2022/01/31 07:05:29;;;;;;;31.13;5.05;;;;;;;4.11;61.30;99444.56;5035022;28;20467;-75
2022/01/31 07:07:55;;;;;;;29.00;4.50;;;;;;;4.14;62.08;99438.03;5036439;28;20069;-76
2022/01/31 07:10:23;;;;;;;26.40;5.72;;;;;;;4.15;61.33;99429.09;5036381;28;20033;-75
2022/01/31 07:12:54;;;;;;;24.60;5.47;;;;;;;4.12;61.40;99418.75;5038403;28;20105;-76
2022/01/31 07:15:22;;;;;;;19.08;4.93;;;;;;;4.20;61.99;99413.63;5039389;28;20075;-76
2022/01/31 07:17:55;;;;;;;31.25;5.97;;;;;;;4.20;61.41;99419.25;5040420;28;20416;-76
2022/01/31 07:20:28;;;;;;;17.30;4.97;;;;;;;4.15;61.78;99425.47;5037359;28;20037;-76
2022/01/31 07:23:01;;;;;;;21.23;4.93;;;;;;;4.25;61.73;99424.31;5041117;28;20135;-75
2022/01/31 07:25:42;;;;;;;25.00;4.78;;;;;;;4.30;61.18;99421.69;5039488;28;20033;-76
2022/01/31 07:28:10;;;;;;;24.20;5.20;;;;;;;4.26;61.77;99421.03;5038906;28;20025;-75
2022/01/31 07:30:39;;;;;;;36.38;7.35;;;;;;;4.28;60.93;99429.06;5017321;28;20037;-75
2022/01/31 07:33:13;;;;;;;18.45;4.35;;;;;;;4.34;60.76;99432.88;5023782;28;20095;-76
2022/01/31 07:35:40;;;;;;;22.13;5.05;;;;;;;4.27;61.09;99428.25;5038678;28;20033;-74
2022/01/31 07:38:09;;;;;;;27.27;4.78;;;;;;;4.39;61.16;99418.16;5040930;28;20029;-76
2022/01/31 07:40:36;;;;;;;30.90;4.80;;;;;;;4.57;59.94;99417.50;5038229;28;20082;-76
2022/01/31 07:43:03;;;;;;;28.13;5.43;;;;;;;4.62;59.68;99412.06;5039950;28;20378;-76
2022/01/31 07:45:29;;;;;;;18.45;4.85;;;;;;;4.52;59.65;99407.63;5003808;28;20124;-74
2022/01/31 07:47:57;;;;;;;19.45;5.05;;;;;;;4.49;60.12;99407.75;5042645;28;20065;-76
2022/01/31 07:50:22;;;;;;;26.38;6.20;;;;;;;4.49;60.00;99397.25;5040126;28;20025;-75
2022/01/31 07:52:49;;;;;;;24.95;5.95;;;;;;;4.50;60.15;99395.22;5038959;28;20034;-76
2022/01/31 07:55:15;;;;;;;24.55;5.30;;;;;;;4.58;59.77;99391.69;5035638;28;20415;-75
2022/01/31 07:57:45;;;;;;;29.80;5.85;;;;;;;4.57;60.46;99378.81;5037451;28;20514;-76
2022/01/31 08:00:12;;;;;;;21.60;5.43;;;;;;;4.66;60.51;99369.63;5036890;28;20382;-76
2022/01/31 08:02:39;;;;;;;27.70;5.60;;;;;;;4.66;60.06;99366.81;5007017;28;20029;-76
2022/01/31 08:05:07;;;;;;;26.15;5.25;;;;;;;4.68;59.98;99362.28;5036124;28;20021;-76
2022/01/31 08:07:48;;;;;;;23.15;6.10;;;;;;;4.74;60.47;99357.59;5037308;28;20021;-76
2022/01/31 08:10:15;;;;;;;23.10;5.15;;;;;;;4.70;59.96;99342.84;5038270;28;20029;-74
2022/01/31 08:12:42;;;;;;;21.63;6.38;;;;;;;4.75;59.97;99347.88;5035854;28;20602;-76
2022/01/31 08:15:14;;;;;;;29.35;5.90;;;;;;;4.76;60.29;99338.19;5033029;28;20030;-75
2022/01/31 08:17:41;;;;;;;30.05;6.32;;;;;;;4.98;59.56;99337.34;5033399;28;20034;-75
2022/01/31 08:20:09;;;;;;;25.25;5.70;;;;;;;4.91;60.01;99329.94;5036109;28;20116;-75
2022/01/31 08:22:35;;;;;;;19.88;5.55;;;;;;;4.95;60.15;99335.44;5034780;28;20029;-76
2022/01/31 08:25:01;;;;;;;21.25;4.80;;;;;;;4.93;59.68;99330.28;5035080;28;20041;-74
2022/01/31 08:27:26;;;;;;;23.88;6.20;;;;;;;4.97;60.59;99313.97;5034749;28;20077;-76
2022/01/31 08:29:59;;;;;;;25.17;6.95;;;;;;;4.90;60.36;99314.25;5017703;28;20079;-76
2022/01/31 08:32:33;;;;;;;25.00;6.55;;;;;;;4.98;60.93;99303.47;5033487;28;20442;-75
2022/01/31 08:38:24;;;;;;;24.98;6.78;;;;;;;5.12;59.71;99300.84;5012984;28;20092;-76
2022/01/31 08:40:53;;;;;;;38.40;6.60;;;;;;;5.08;59.40;99307.91;5012454;28;20530;-75
2022/01/31 08:43:20;;;;;;;30.92;7.97;;;;;;;5.04;59.65;99302.38;4998618;28;20037;-75
2022/01/31 08:45:48;;;;;;;34.80;7.35;;;;;;;5.08;60.24;99291.72;5006418;28;20044;-75
2022/01/31 08:48:13;;;;;;;30.55;6.90;;;;;;;5.17;60.73;99285.34;5037697;28;20025;-76
2022/01/31 08:50:59;;;;;;;27.65;6.22;;;;;;;5.31;59.53;99273.44;5019668;28;20201;-76
2022/01/31 08:53:25;;;;;;;29.23;6.70;;;;;;;5.32;59.34;99265.75;5037292;28;20026;-75
2022/01/31 08:55:59;;;;;;;42.38;7.00;;;;;;;5.42;58.36;99264.50;5036792;28;20057;-75
2022/01/31 08:58:26;;;;;;;32.83;6.90;;;;;;;5.45;59.45;99261.53;5035445;28;20462;-76
2022/01/31 09:01:04;;;;;;;28.48;7.28;;;;;;;5.40;58.91;99253.69;5019266;28;20068;-75
2022/01/31 09:04:21;;;;;;;34.35;7.60;;;;;;;5.39;58.68;99254.16;5037178;28;20048;-75
2022/01/31 09:06:36;;;;;;;26.20;6.40;;;;;;;5.53;58.03;99253.53;5033823;28;20033;-75
2022/01/31 09:09:08;;;;;;;30.33;6.28;;;;;;;5.53;58.71;99250.69;5036862;28;20028;-75
2022/01/31 09:11:37;;;;;;;23.70;6.60;;;;;;;5.52;58.65;99240.69;5036599;28;20029;-74
2022/01/31 09:14:03;;;;;;;27.58;6.85;;;;;;;5.58;57.81;99242.38;5018294;28;20356;-76
2022/01/31 09:16:28;;;;;;;24.70;6.55;;;;;;;5.56;57.73;99241.31;5018542;28;20057;-76
2022/01/31 09:18:55;;;;;;;31.63;6.10;;;;;;;5.56;57.46;99242.09;5018379;28;20040;-76
2022/01/31 09:21:22;;;;;;;27.35;6.97;;;;;;;5.62;57.98;99245.81;5036156;28;20478;-76
2022/01/31 09:23:52;;;;;;;28.02;5.93;;;;;;;5.66;57.72;99240.03;5035154;28;20375;-75
2022/01/31 09:26:22;;;;;;;23.17;6.75;;;;;;;5.68;58.13;99251.63;5036607;28;20030;-76
2022/01/31 09:28:50;;;;;;;26.38;6.07;;;;;;;5.77;57.55;99248.81;5035177;28;20037;-76
2022/01/31 09:31:21;;;;;;;33.10;6.57;;;;;;;5.81;57.20;99243.78;5034427;28;20061;-75
2022/01/31 09:33:48;;;;;;;28.00;6.28;;;;;;;5.84;58.12;99240.00;5017497;28;20029;-76
2022/01/31 09:36:18;;;;;;;28.25;6.13;;;;;;;5.86;57.14;99243.16;5034541;28;20033;-74
2022/01/31 09:38:45;;;;;;;32.10;7.07;;;;;;;5.95;58.08;99245.22;5034535;28;20041;-75
2022/01/31 09:41:20;;;;;;;35.65;7.35;;;;;;;5.95;57.75;99236.72;5034599;28;20509;-76
2022/01/31 09:44:05;;;;;;;34.70;6.45;;;;;;;5.94;57.02;99224.63;5035905;28;20053;-76
2022/01/31 09:46:46;;;;;;;29.63;7.53;;;;;;;6.00;57.18;99224.78;5034826;28;20482;-76
2022/01/31 09:49:12;;;;;;;22.42;6.13;;;;;;;6.01;56.91;99218.69;5034176;28;20033;-76
2022/01/31 09:51:38;;;;;;;30.80;7.07;;;;;;;5.92;56.86;99224.31;5035169;28;20028;-75
2022/01/31 09:54:05;;;;;;;32.80;6.95;;;;;;;5.93;57.33;99227.94;5032995;28;20469;-76
2022/01/31 09:56:33;;;;;;;30.25;6.72;;;;;;;5.96;57.97;99230.63;5034627;28;20071;-75
2022/01/31 09:59:08;;;;;;;24.25;6.68;;;;;;;5.93;57.12;99216.63;5033852;28;20055;-76
2022/01/31 10:01:36;;;;;;;26.55;6.47;;;;;;;6.02;56.80;99220.22;5034754;28;20447;-76
2022/01/31 10:04:17;;;;;;;32.97;6.82;;;;;;;6.06;56.54;99214.41;5035150;28;20040;-76
2022/01/31 10:06:47;;;;;;;26.67;6.60;;;;;;;6.11;57.32;99210.16;5034976;28;20056;-76
2022/01/31 10:09:18;;;;;;;29.95;7.28;;;;;;;6.11;56.48;99205.28;5033421;28;20061;-75
2022/01/31 10:12:04;;;;;;;28.13;6.72;;;;;;;6.14;56.52;99193.03;5017218;28;20565;-76
2022/01/31 10:17:24;;;;;;;35.88;6.80;;;;;;;6.12;55.30;99189.88;5020164;28;20393;-75
2022/01/31 10:19:55;;;;;;;32.08;6.70;;;;;;;6.14;54.92;99190.19;5033901;28;20025;-76
2022/01/31 10:22:29;;;;;;;25.15;6.97;;;;;;;6.08;54.90;99175.94;5031230;28;20033;-75
2022/01/31 10:25:02;;;;;;;29.50;6.18;;;;;;;6.12;54.85;99172.16;5033756;28;20033;-75
2022/01/31 10:27:31;;;;;;;25.45;6.28;;;;;;;6.09;55.67;99162.56;5018117;28;20022;-76
2022/01/31 10:30:09;;;;;;;24.80;7.35;;;;;;;6.05;55.48;99150.66;5033301;28;20075;-74
2022/01/31 10:32:37;;;;;;;22.58;6.13;;;;;;;6.17;55.67;99146.84;5032924;28;20423;-75
2022/01/31 10:35:23;;;;;;;28.05;6.70;;;;;;;6.14;55.00;99144.19;5032929;28;20025;-76
2022/01/31 10:38:15;;;;;;;19.75;6.47;;;;;;;6.15;55.75;99125.97;5034038;28;20112;-75
2022/01/31 10:52:17;;;;;;;24.42;6.65;;;;;;;6.30;55.64;99110.66;5033137;28;20044;-75
2022/01/31 10:54:44;;;;;;;29.95;6.40;;;;;;;6.30;54.52;99107.06;5033307;28;20138;-75
2022/01/31 10:57:20;;;;;;;26.92;7.45;;;;;;;6.32;54.50;99110.94;5033996;28;20055;-75
2022/01/31 11:00:00;;;;;;;27.38;7.32;;;;;;;6.39;54.65;99104.97;5032494;28;20033;-75
2022/01/31 11:02:27;;;;;;;25.65;6.85;;;;;;;6.35;54.74;99092.25;5032500;28;20501;-76
2022/01/31 11:04:53;;;;;;;24.50;6.82;;;;;;;6.40;54.05;99095.22;5031658;28;20117;-75
2022/01/31 11:07:25;;;;;;;29.33;7.03;;;;;;;6.43;54.06;99099.09;5033731;28;20097;-75
2022/01/31 11:09:53;;;;;;;28.88;5.97;;;;;;;6.48;54.68;99095.63;5033655;28;20029;-74
2022/01/31 11:12:22;;;;;;;32.03;6.93;;;;;;;6.54;54.14;99082.41;5032008;28;20496;-75
2022/01/31 11:14:50;;;;;;;19.90;7.13;;;;;;;6.70;53.72;99081.19;5032234;28;20474;-75
2022/01/31 11:17:20;;;;;;;21.80;6.18;;;;;;;6.83;53.11;99076.84;5032260;28;20065;-75
2022/01/31 11:19:56;;;;;;;23.58;7.68;;;;;;;6.94;52.82;99079.09;5032488;28;20030;-74
2022/01/31 11:22:35;;;;;;;32.40;7.03;;;;;;;7.09;52.37;99076.31;5032407;28;20112;-75
2022/01/31 11:25:05;;;;;;;29.70;7.22;;;;;;;7.28;51.31;99069.97;5033678;28;20024;-75
2022/01/31 11:27:33;;;;;;;26.98;6.72;;;;;;;7.23;50.74;99055.72;5032050;28;20332;-75
2022/01/31 11:30:00;;;;;;;25.08;6.45;;;;;;;7.35;50.51;99069.59;5031976;28;20029;-76
2022/01/31 11:32:27;;;;;;;31.95;6.97;;;;;;;7.34;50.39;99058.75;5032122;28;20057;-75
2022/01/31 11:34:54;;;;;;;27.73;6.82;;;;;;;7.29;50.65;99065.09;5032090;28;20038;-75
2022/01/31 11:37:21;;;;;;;24.85;6.70;;;;;;;7.32;51.40;99055.63;5015535;28;20022;-75
2022/01/31 11:39:57;;;;;;;20.40;6.30;;;;;;;7.21;50.31;99061.88;5033141;28;20060;-76
2022/01/31 11:42:22;;;;;;;29.25;6.85;;;;;;;7.12;50.48;99052.66;5031774;28;20030;-76
2022/01/31 11:45:10;;;;;;;27.23;5.82;;;;;;;7.06;49.73;99051.78;5031808;28;20030;-75
2022/01/31 11:47:37;;;;;;;21.10;5.75;;;;;;;6.94;50.96;99053.63;5031675;28;20071;-75
2022/01/31 11:50:08;;;;;;;28.17;5.32;;;;;;;6.90;50.33;99056.66;5031617;28;20030;-76
2022/01/31 11:52:58;;;;;;;25.70;5.90;;;;;;;6.95;49.27;99058.03;5032136;28;20479;-75
2022/01/31 11:55:29;;;;;;;22.73;6.32;;;;;;;6.84;50.59;99047.28;5032798;28;20123;-75
2022/01/31 11:57:56;;;;;;;28.77;6.00;;;;;;;6.85;49.96;99040.34;5015849;28;20374;-75
2022/01/31 12:00:27;;;;;;;30.33;11.52;;;;;;;6.87;50.10;99037.81;5014962;28;20536;-76
2022/01/31 12:02:55;;;;;;;24.50;5.93;;;;;;;6.87;49.61;99045.50;5031682;28;20075;-75